sensor_id;sensor_type;location;lat;lon;timestamp;pressure;altitude;pressure_sealevel;temperature;humidity
78383;BME280;67668;52.294;4.692;2024-02-14T00:02:07;101227.31;;;8.75;98.38
78383;BME280;67668;52.294;4.692;2024-02-14T00:04:33;101236.91;;;8.76;98.47
78383;BME280;67668;52.294;4.692;2024-02-14T00:06:58;101215.69;;;8.78;98.59
78383;BME280;67668;52.294;4.692;2024-02-14T00:09:23;101220.97;;;8.78;98.54
78383;BME280;67668;52.294;4.692;2024-02-14T00:11:48;101213.06;;;8.78;98.85
78383;BME280;67668;52.294;4.692;2024-02-14T00:14:14;101213.88;;;8.78;99.27
78383;BME280;67668;52.294;4.692;2024-02-14T00:16:39;101212.09;;;8.79;98.86
78383;BME280;67668;52.294;4.692;2024-02-14T00:19:04;101208.50;;;8.80;98.63
78383;BME280;67668;52.294;4.692;2024-02-14T00:21:30;101211.97;;;8.80;99.23
78383;BME280;67668;52.294;4.692;2024-02-14T00:23:56;101205.75;;;8.81;98.62
78383;BME280;67668;52.294;4.692;2024-02-14T00:26:23;101204.75;;;8.82;98.88
78383;BME280;67668;52.294;4.692;2024-02-14T00:28:49;101195.91;;;8.83;98.76
78383;BME280;67668;52.294;4.692;2024-02-14T00:31:14;101208.00;;;8.86;99.08
78383;BME280;67668;52.294;4.692;2024-02-14T00:33:40;101199.22;;;8.86;98.99
78383;BME280;67668;52.294;4.692;2024-02-14T00:36:06;101200.09;;;8.86;99.05
78383;BME280;67668;52.294;4.692;2024-02-14T00:38:32;101201.63;;;8.89;99.43
78383;BME280;67668;52.294;4.692;2024-02-14T00:40:57;101200.69;;;8.90;99.39
78383;BME280;67668;52.294;4.692;2024-02-14T00:43:22;101198.88;;;8.90;99.35
78383;BME280;67668;52.294;4.692;2024-02-14T00:45:48;101201.38;;;8.92;99.48
78383;BME280;67668;52.294;4.692;2024-02-14T00:48:13;101205.72;;;8.93;100.00
78383;BME280;67668;52.294;4.692;2024-02-14T00:50:38;101198.75;;;8.92;99.69
78383;BME280;67668;52.294;4.692;2024-02-14T00:53:03;101201.28;;;8.93;99.77
78383;BME280;67668;52.294;4.692;2024-02-14T00:55:29;101206.44;;;8.95;99.39
78383;BME280;67668;52.294;4.692;2024-02-14T00:57:54;101204.63;;;8.95;100.00
78383;BME280;67668;52.294;4.692;2024-02-14T01:00:19;101201.03;;;8.96;99.80
78383;BME280;67668;52.294;4.692;2024-02-14T01:02:44;101211.47;;;8.98;99.55
78383;BME280;67668;52.294;4.692;2024-02-14T01:05:10;101212.19;;;9.00;100.00
78383;BME280;67668;52.294;4.692;2024-02-14T01:07:35;101203.31;;;9.01;100.00
78383;BME280;67668;52.294;4.692;2024-02-14T01:10:01;101210.13;;;9.03;100.00
78383;BME280;67668;52.294;4.692;2024-02-14T01:12:26;101210.84;;;9.05;100.00
78383;BME280;67668;52.294;4.692;2024-02-14T01:14:52;101204.00;;;9.03;100.00
78383;BME280;67668;52.294;4.692;2024-02-14T01:17:17;101203.75;;;9.06;100.00
78383;BME280;67668;52.294;4.692;2024-02-14T01:19:42;101216.00;;;9.07;100.00
78383;BME280;67668;52.294;4.692;2024-02-14T01:22:09;101218.50;;;9.08;100.00
78383;BME280;67668;52.294;4.692;2024-02-14T01:24:34;101217.56;;;9.09;100.00
78383;BME280;67668;52.294;4.692;2024-02-14T01:27:00;101215.66;;;9.11;100.00
78383;BME280;67668;52.294;4.692;2024-02-14T01:29:25;101220.94;;;9.11;100.00
78383;BME280;67668;52.294;4.692;2024-02-14T01:31:50;101221.66;;;9.13;100.00
78383;BME280;67668;52.294;4.692;2024-02-14T01:34:16;101225.13;;;9.14;100.00
78383;BME280;67668;52.294;4.692;2024-02-14T01:36:41;101226.78;;;9.15;100.00
78383;BME280;67668;52.294;4.692;2024-02-14T01:39:06;101222.34;;;9.15;100.00
78383;BME280;67668;52.294;4.692;2024-02-14T01:41:44;101226.56;;;9.18;100.00
78383;BME280;67668;52.294;4.692;2024-02-14T01:44:11;101236.16;;;9.19;100.00
78383;BME280;67668;52.294;4.692;2024-02-14T01:46:36;101232.56;;;9.20;100.00
78383;BME280;67668;52.294;4.692;2024-02-14T01:49:01;101224.75;;;9.18;100.00
78383;BME280;67668;52.294;4.692;2024-02-14T01:51:28;101228.97;;;9.21;100.00
78383;BME280;67668;52.294;4.692;2024-02-14T01:53:55;101239.38;;;9.22;100.00
78383;BME280;67668;52.294;4.692;2024-02-14T01:56:20;101231.34;;;9.24;100.00
78383;BME280;67668;52.294;4.692;2024-02-14T01:58:47;101234.84;;;9.24;100.00
78383;BME280;67668;52.294;4.692;2024-02-14T02:01:12;101243.47;;;9.26;100.00
78383;BME280;67668;52.294;4.692;2024-02-14T02:03:37;101230.00;;;9.29;100.00
78383;BME280;67668;52.294;4.692;2024-02-14T02:06:06;101222.78;;;9.31;100.00
78383;BME280;67668;52.294;4.692;2024-02-14T02:08:32;101234.19;;;9.32;100.00
78383;BME280;67668;52.294;4.692;2024-02-14T02:10:58;101233.94;;;9.35;100.00
78383;BME280;67668;52.294;4.692;2024-02-14T02:13:23;101231.19;;;9.37;100.00
78383;BME280;67668;52.294;4.692;2024-02-14T02:15:50;101233.84;;;9.37;100.00
78383;BME280;67668;52.294;4.692;2024-02-14T02:18:17;101227.47;;;9.39;100.00
78383;BME280;67668;52.294;4.692;2024-02-14T02:20:42;101244.03;;;9.41;100.00
78383;BME280;67668;52.294;4.692;2024-02-14T02:23:12;101243.06;;;9.42;100.00
78383;BME280;67668;52.294;4.692;2024-02-14T02:25:43;101233.22;;;9.44;100.00
78383;BME280;67668;52.294;4.692;2024-02-14T02:28:08;101232.97;;;9.47;100.00
78383;BME280;67668;52.294;4.692;2024-02-14T02:30:34;101231.88;;;9.50;100.00
78383;BME280;67668;52.294;4.692;2024-02-14T02:33:01;101243.28;;;9.50;100.00
78383;BME280;67668;52.294;4.692;2024-02-14T02:35:27;101241.22;;;9.54;100.00
78383;BME280;67668;52.294;4.692;2024-02-14T02:37:52;101235.69;;;9.57;100.00
78383;BME280;67668;52.294;4.692;2024-02-14T02:40:18;101236.53;;;9.57;100.00
78383;BME280;67668;52.294;4.692;2024-02-14T02:42:46;101239.88;;;9.59;100.00
78383;BME280;67668;52.294;4.692;2024-02-14T02:45:11;101246.72;;;9.62;100.00
78383;BME280;67668;52.294;4.692;2024-02-14T02:47:37;101250.19;;;9.62;100.00
78383;BME280;67668;52.294;4.692;2024-02-14T02:50:02;101251.75;;;9.65;100.00
78383;BME280;67668;52.294;4.692;2024-02-14T02:52:28;101242.84;;;9.66;100.00
78383;BME280;67668;52.294;4.692;2024-02-14T02:54:54;101239.97;;;9.69;100.00
78383;BME280;67668;52.294;4.692;2024-02-14T02:57:19;101238.16;;;9.69;100.00
78383;BME280;67668;52.294;4.692;2024-02-14T02:59:45;101234.56;;;9.70;100.00
78383;BME280;67668;52.294;4.692;2024-02-14T03:02:12;101248.47;;;9.72;100.00
78383;BME280;67668;52.294;4.692;2024-02-14T03:04:38;101241.25;;;9.74;100.00
78383;BME280;67668;52.294;4.692;2024-02-14T03:07:03;101238.59;;;9.74;100.00
78383;BME280;67668;52.294;4.692;2024-02-14T03:09:32;101246.44;;;9.76;100.00
78383;BME280;67668;52.294;4.692;2024-02-14T03:11:57;101238.38;;;9.77;100.00
78383;BME280;67668;52.294;4.692;2024-02-14T03:14:23;101233.91;;;9.78;100.00
78383;BME280;67668;52.294;4.692;2024-02-14T03:16:48;101242.44;;;9.81;100.00
78383;BME280;67668;52.294;4.692;2024-02-14T03:19:13;101249.41;;;9.82;100.00
78383;BME280;67668;52.294;4.692;2024-02-14T03:21:39;101261.66;;;9.83;100.00
78383;BME280;67668;52.294;4.692;2024-02-14T03:24:04;101255.28;;;9.86;100.00
78383;BME280;67668;52.294;4.692;2024-02-14T03:26:34;101252.53;;;9.88;100.00
78383;BME280;67668;52.294;4.692;2024-02-14T03:29:00;101264.75;;;9.88;100.00
78383;BME280;67668;52.294;4.692;2024-02-14T03:31:25;101262.25;;;9.87;100.00
78383;BME280;67668;52.294;4.692;2024-02-14T03:33:51;101268.13;;;9.91;100.00
78383;BME280;67668;52.294;4.692;2024-02-14T03:36:16;101264.50;;;9.92;100.00
78383;BME280;67668;52.294;4.692;2024-02-14T03:38:41;101265.22;;;9.94;100.00
78383;BME280;67668;52.294;4.692;2024-02-14T03:41:07;101274.00;;;9.94;100.00
78383;BME280;67668;52.294;4.692;2024-02-14T03:43:32;101260.63;;;9.96;100.00
78383;BME280;67668;52.294;4.692;2024-02-14T03:45:58;101271.91;;;9.98;100.00
78383;BME280;67668;52.294;4.692;2024-02-14T03:48:23;101272.66;;;10.00;100.00
78383;BME280;67668;52.294;4.692;2024-02-14T03:50:48;101275.41;;;9.98;100.00
78383;BME280;67668;52.294;4.692;2024-02-14T03:53:14;101276.84;;;10.02;100.00
78383;BME280;67668;52.294;4.692;2024-02-14T03:55:40;101271.53;;;10.02;100.00
78383;BME280;67668;52.294;4.692;2024-02-14T03:58:05;101271.44;;;10.04;100.00
78383;BME280;67668;52.294;4.692;2024-02-14T04:00:31;101278.38;;;10.05;100.00
78383;BME280;67668;52.294;4.692;2024-02-14T04:02:57;101281.88;;;10.05;100.00
78383;BME280;67668;52.294;4.692;2024-02-14T04:05:26;101283.56;;;10.06;100.00
78383;BME280;67668;52.294;4.692;2024-02-14T04:07:55;101281.59;;;10.08;100.00
78383;BME280;67668;52.294;4.692;2024-02-14T04:10:20;101288.59;;;10.09;100.00
78383;BME280;67668;52.294;4.692;2024-02-14T04:12:46;101289.28;;;10.11;100.00
78383;BME280;67668;52.294;4.692;2024-02-14T04:15:12;101294.56;;;10.11;100.00
78383;BME280;67668;52.294;4.692;2024-02-14T04:17:38;101307.56;;;10.14;100.00
78383;BME280;67668;52.294;4.692;2024-02-14T04:20:04;101295.19;;;10.15;100.00
78383;BME280;67668;52.294;4.692;2024-02-14T04:22:30;101300.47;;;10.15;100.00
78383;BME280;67668;52.294;4.692;2024-02-14T04:24:55;101295.91;;;10.17;100.00
78383;BME280;67668;52.294;4.692;2024-02-14T04:27:21;101313.44;;;10.18;100.00
78383;BME280;67668;52.294;4.692;2024-02-14T04:29:47;101308.16;;;10.18;100.00
78383;BME280;67668;52.294;4.692;2024-02-14T04:32:13;101311.53;;;10.20;100.00
78383;BME280;67668;52.294;4.692;2024-02-14T04:34:39;101309.72;;;10.20;100.00
78383;BME280;67668;52.294;4.692;2024-02-14T04:37:04;101313.06;;;10.22;100.00
78383;BME280;67668;52.294;4.692;2024-02-14T04:39:38;101318.25;;;10.24;100.00
78383;BME280;67668;52.294;4.692;2024-02-14T04:42:03;101325.19;;;10.25;100.00
78383;BME280;67668;52.294;4.692;2024-02-14T04:44:30;101319.06;;;10.24;100.00
78383;BME280;67668;52.294;4.692;2024-02-14T04:46:55;101318.00;;;10.27;100.00
78383;BME280;67668;52.294;4.692;2024-02-14T04:49:21;101331.06;;;10.28;100.00
78383;BME280;67668;52.294;4.692;2024-02-14T04:51:46;101328.31;;;10.30;100.00
78383;BME280;67668;52.294;4.692;2024-02-14T04:54:12;101336.38;;;10.28;100.00
78383;BME280;67668;52.294;4.692;2024-02-14T04:56:38;101329.16;;;10.30;100.00
78383;BME280;67668;52.294;4.692;2024-02-14T04:59:04;101331.66;;;10.32;100.00
78383;BME280;67668;52.294;4.692;2024-02-14T05:01:30;101336.00;;;10.33;100.00
78383;BME280;67668;52.294;4.692;2024-02-14T05:03:55;101340.34;;;10.34;100.00
78383;BME280;67668;52.294;4.692;2024-02-14T05:06:20;101329.75;;;10.34;100.00
78383;BME280;67668;52.294;4.692;2024-02-14T05:08:46;101332.38;;;10.34;100.00
78383;BME280;67668;52.294;4.692;2024-02-14T05:11:11;101337.53;;;10.35;100.00
78383;BME280;67668;52.294;4.692;2024-02-14T05:13:37;101338.38;;;10.36;100.00
78383;BME280;67668;52.294;4.692;2024-02-14T05:16:03;101336.59;;;10.36;100.00
78383;BME280;67668;52.294;4.692;2024-02-14T05:18:29;101340.06;;;10.37;100.00
78383;BME280;67668;52.294;4.692;2024-02-14T05:20:54;101343.41;;;10.39;100.00
78383;BME280;67668;52.294;4.692;2024-02-14T05:23:20;101341.72;;;10.38;100.00
78383;BME280;67668;52.294;4.692;2024-02-14T05:25:45;101345.09;;;10.40;100.00
78383;BME280;67668;52.294;4.692;2024-02-14T05:28:10;101350.41;;;10.40;100.00
78383;BME280;67668;52.294;4.692;2024-02-14T05:30:40;101347.59;;;10.42;100.00
78383;BME280;67668;52.294;4.692;2024-02-14T05:33:05;101353.75;;;10.42;100.00
78383;BME280;67668;52.294;4.692;2024-02-14T05:35:31;101349.28;;;10.43;100.00
78383;BME280;67668;52.294;4.692;2024-02-14T05:37:56;101346.50;;;10.44;100.00
78383;BME280;67668;52.294;4.692;2024-02-14T05:40:22;101351.78;;;10.44;100.00
78383;BME280;67668;52.294;4.692;2024-02-14T05:42:47;101353.47;;;10.45;100.00
78383;BME280;67668;52.294;4.692;2024-02-14T05:45:12;101353.47;;;10.45;100.00
78383;BME280;67668;52.294;4.692;2024-02-14T05:47:38;101358.66;;;10.47;100.00
78383;BME280;67668;52.294;4.692;2024-02-14T05:50:03;101362.16;;;10.47;100.00
78383;BME280;67668;52.294;4.692;2024-02-14T05:52:29;101363.81;;;10.48;100.00
78383;BME280;67668;52.294;4.692;2024-02-14T05:54:54;101366.44;;;10.48;100.00
78383;BME280;67668;52.294;4.692;2024-02-14T05:57:19;101371.63;;;10.50;100.00
78383;BME280;67668;52.294;4.692;2024-02-14T05:59:45;101370.78;;;10.49;100.00
78383;BME280;67668;52.294;4.692;2024-02-14T06:02:10;101380.28;;;10.52;100.00
78383;BME280;67668;52.294;4.692;2024-02-14T06:04:35;101376.78;;;10.51;100.00
78383;BME280;67668;52.294;4.692;2024-02-14T06:07:01;101375.13;;;10.50;100.00
78383;BME280;67668;52.294;4.692;2024-02-14T06:09:26;101376.66;;;10.53;100.00
78383;BME280;67668;52.294;4.692;2024-02-14T06:11:52;101381.81;;;10.54;100.00
78383;BME280;67668;52.294;4.692;2024-02-14T06:14:17;101384.34;;;10.56;100.00
78383;BME280;67668;52.294;4.692;2024-02-14T06:16:43;101387.84;;;10.56;100.00
78383;BME280;67668;52.294;4.692;2024-02-14T06:19:09;101388.69;;;10.57;100.00
78383;BME280;67668;52.294;4.692;2024-02-14T06:21:35;101395.78;;;10.56;100.00
78383;BME280;67668;52.294;4.692;2024-02-14T06:24:01;101397.44;;;10.57;100.00
78383;BME280;67668;52.294;4.692;2024-02-14T06:26:30;101389.75;;;10.54;100.00
78383;BME280;67668;52.294;4.692;2024-02-14T06:28:55;101395.03;;;10.54;100.00
78383;BME280;67668;52.294;4.692;2024-02-14T06:31:22;101401.19;;;10.55;100.00
78383;BME280;67668;52.294;4.692;2024-02-14T06:33:47;101402.19;;;10.54;100.00
78383;BME280;67668;52.294;4.692;2024-02-14T06:36:13;101394.22;;;10.54;100.00
78383;BME280;67668;52.294;4.692;2024-02-14T06:38:38;101409.00;;;10.56;100.00
78383;BME280;67668;52.294;4.692;2024-02-14T06:41:05;101407.31;;;10.55;100.00
78383;BME280;67668;52.294;4.692;2024-02-14T06:43:30;101400.94;;;10.58;100.00
78383;BME280;67668;52.294;4.692;2024-02-14T06:45:56;101406.22;;;10.58;100.00
78383;BME280;67668;52.294;4.692;2024-02-14T06:48:22;101408.75;;;10.59;100.00
78383;BME280;67668;52.294;4.692;2024-02-14T06:50:49;101413.19;;;10.59;100.00
78383;BME280;67668;52.294;4.692;2024-02-14T06:53:15;101412.34;;;10.58;100.00
78383;BME280;67668;52.294;4.692;2024-02-14T06:55:40;101410.56;;;10.59;100.00
78383;BME280;67668;52.294;4.692;2024-02-14T06:58:05;101414.03;;;10.59;100.00
78383;BME280;67668;52.294;4.692;2024-02-14T07:00:31;101416.56;;;10.61;100.00
78383;BME280;67668;52.294;4.692;2024-02-14T07:02:56;101418.25;;;10.62;100.00
78383;BME280;67668;52.294;4.692;2024-02-14T07:05:21;101430.78;;;10.60;100.00
78383;BME280;67668;52.294;4.692;2024-02-14T07:07:47;101427.13;;;10.61;100.00
78383;BME280;67668;52.294;4.692;2024-02-14T07:10:12;101423.69;;;10.60;100.00
78383;BME280;67668;52.294;4.692;2024-02-14T07:12:38;101424.25;;;10.64;100.00
78383;BME280;67668;52.294;4.692;2024-02-14T07:15:04;101435.66;;;10.64;100.00
78383;BME280;67668;52.294;4.692;2024-02-14T07:17:30;101437.34;;;10.65;100.00
78383;BME280;67668;52.294;4.692;2024-02-14T07:19:56;101433.03;;;10.64;100.00
78383;BME280;67668;52.294;4.692;2024-02-14T07:22:21;101447.09;;;10.65;100.00
78383;BME280;67668;52.294;4.692;2024-02-14T07:24:47;101440.00;;;10.65;100.00
78383;BME280;67668;52.294;4.692;2024-02-14T07:27:14;101436.50;;;10.65;100.00
78383;BME280;67668;52.294;4.692;2024-02-14T07:29:39;101436.41;;;10.66;100.00
78383;BME280;67668;52.294;4.692;2024-02-14T07:32:05;101443.25;;;10.69;100.00
78383;BME280;67668;52.294;4.692;2024-02-14T07:34:31;101448.66;;;10.67;100.00
78383;BME280;67668;52.294;4.692;2024-02-14T07:36:56;101437.94;;;10.69;100.00
78383;BME280;67668;52.294;4.692;2024-02-14T07:39:22;101447.69;;;10.68;100.00
78383;BME280;67668;52.294;4.692;2024-02-14T07:44:50;101459.81;;;10.71;100.00
78383;BME280;67668;52.294;4.692;2024-02-14T07:47:16;101455.38;;;10.71;100.00
78383;BME280;67668;52.294;4.692;2024-02-14T07:49:41;101455.25;;;10.73;100.00
78383;BME280;67668;52.294;4.692;2024-02-14T07:52:06;101458.75;;;10.73;100.00
78383;BME280;67668;52.294;4.692;2024-02-14T07:54:32;101458.75;;;10.73;100.00
78383;BME280;67668;52.294;4.692;2024-02-14T07:56:57;101462.09;;;10.75;100.00
78383;BME280;67668;52.294;4.692;2024-02-14T07:59:22;101461.25;;;10.75;100.00
78383;BME280;67668;52.294;4.692;2024-02-14T08:01:48;101468.09;;;10.77;100.00
78383;BME280;67668;52.294;4.692;2024-02-14T08:04:13;101464.50;;;10.78;100.00
78383;BME280;67668;52.294;4.692;2024-02-14T08:06:38;101474.97;;;10.80;100.00
78383;BME280;67668;52.294;4.692;2024-02-14T08:09:04;101468.69;;;10.81;100.00
78383;BME280;67668;52.294;4.692;2024-02-14T08:11:32;101477.47;;;10.81;100.00
78383;BME280;67668;52.294;4.692;2024-02-14T08:13:57;101468.69;;;10.81;100.00
78383;BME280;67668;52.294;4.692;2024-02-14T08:16:23;101471.22;;;10.82;100.00
78383;BME280;67668;52.294;4.692;2024-02-14T08:18:49;101464.97;;;10.83;100.00
78383;BME280;67668;52.294;4.692;2024-02-14T08:21:16;101469.41;;;10.83;100.00
78383;BME280;67668;52.294;4.692;2024-02-14T08:23:41;101469.00;;;10.87;100.00
78383;BME280;67668;52.294;4.692;2024-02-14T08:26:07;101471.53;;;10.89;100.00
78383;BME280;67668;52.294;4.692;2024-02-14T08:28:37;101478.66;;;10.88;100.00
78383;BME280;67668;52.294;4.692;2024-02-14T08:31:02;101480.19;;;10.91;100.00
78383;BME280;67668;52.294;4.692;2024-02-14T08:33:28;101469.47;;;10.93;100.00
78383;BME280;67668;52.294;4.692;2024-02-14T08:35:53;101476.47;;;10.94;100.00
78383;BME280;67668;52.294;4.692;2024-02-14T08:38:22;101474.50;;;10.96;100.00
78383;BME280;67668;52.294;4.692;2024-02-14T08:40:48;101474.38;;;10.97;100.00
78383;BME280;67668;52.294;4.692;2024-02-14T08:43:13;101478.97;;;10.95;100.00
78383;BME280;67668;52.294;4.692;2024-02-14T08:45:39;101479.81;;;10.96;100.00
78383;BME280;67668;52.294;4.692;2024-02-14T08:48:04;101482.19;;;10.99;100.00
78383;BME280;67668;52.294;4.692;2024-02-14T08:50:30;101482.31;;;10.97;100.00
78383;BME280;67668;52.294;4.692;2024-02-14T08:52:56;101484.00;;;10.98;100.00
78383;BME280;67668;52.294;4.692;2024-02-14T08:55:21;101491.00;;;10.99;100.00
78383;BME280;67668;52.294;4.692;2024-02-14T08:57:46;101487.50;;;10.99;100.00
78383;BME280;67668;52.294;4.692;2024-02-14T09:00:15;101491.56;;;11.03;100.00
78383;BME280;67668;52.294;4.692;2024-02-14T09:02:45;101498.41;;;11.05;100.00
78383;BME280;67668;52.294;4.692;2024-02-14T09:05:12;101494.94;;;11.05;100.00
78383;BME280;67668;52.294;4.692;2024-02-14T09:07:37;101494.94;;;11.05;100.00
78383;BME280;67668;52.294;4.692;2024-02-14T09:10:03;101502.03;;;11.04;100.00
78383;BME280;67668;52.294;4.692;2024-02-14T09:12:30;101499.25;;;11.06;100.00
78383;BME280;67668;52.294;4.692;2024-02-14T09:14:57;101489.63;;;11.05;100.00
78383;BME280;67668;52.294;4.692;2024-02-14T09:17:22;101498.31;;;11.07;100.00
78383;BME280;67668;52.294;4.692;2024-02-14T09:19:48;101495.66;;;11.07;100.00
78383;BME280;67668;52.294;4.692;2024-02-14T09:22:13;101498.31;;;11.07;100.00
78383;BME280;67668;52.294;4.692;2024-02-14T09:24:43;101498.84;;;11.10;100.00
78383;BME280;67668;52.294;4.692;2024-02-14T09:27:08;101504.03;;;11.12;100.00
78383;BME280;67668;52.294;4.692;2024-02-14T09:29:34;101505.72;;;11.13;100.00
78383;BME280;67668;52.294;4.692;2024-02-14T09:32:02;101503.09;;;11.13;100.00
78383;BME280;67668;52.294;4.692;2024-02-14T09:34:28;101502.25;;;11.12;100.00
78383;BME280;67668;52.294;4.692;2024-02-14T09:36:54;101506.44;;;11.15;100.00
78383;BME280;67668;52.294;4.692;2024-02-14T09:39:21;101506.44;;;11.15;100.00
78383;BME280;67668;52.294;4.692;2024-02-14T09:41:58;101508.97;;;11.16;100.00
78383;BME280;67668;52.294;4.692;2024-02-14T09:44:27;101503.78;;;11.15;100.00
78383;BME280;67668;52.294;4.692;2024-02-14T09:46:54;101501.13;;;11.15;100.00
78383;BME280;67668;52.294;4.692;2024-02-14T09:49:21;101504.75;;;11.14;100.00
78383;BME280;67668;52.294;4.692;2024-02-14T09:51:48;101504.63;;;11.15;100.00
78383;BME280;67668;52.294;4.692;2024-02-14T09:54:15;101505.31;;;11.17;99.97
78383;BME280;67668;52.294;4.692;2024-02-14T09:56:42;101503.41;;;11.19;100.00
78383;BME280;67668;52.294;4.692;2024-02-14T09:59:08;101507.00;;;11.18;99.53
78383;BME280;67668;52.294;4.692;2024-02-14T10:01:34;101500.59;;;11.21;99.49
78383;BME280;67668;52.294;4.692;2024-02-14T10:04:00;101511.94;;;11.23;100.00
78383;BME280;67668;52.294;4.692;2024-02-14T10:06:25;101513.59;;;11.24;99.79
78383;BME280;67668;52.294;4.692;2024-02-14T10:08:50;101512.06;;;11.21;99.30
78383;BME280;67668;52.294;4.692;2024-02-14T10:11:18;101522.53;;;11.23;99.11
78383;BME280;67668;52.294;4.692;2024-02-14T10:13:47;101518.78;;;11.25;99.77
78383;BME280;67668;52.294;4.692;2024-02-14T10:16:14;101514.31;;;11.26;99.95
78383;BME280;67668;52.294;4.692;2024-02-14T10:18:39;101517.69;;;11.28;99.66
78383;BME280;67668;52.294;4.692;2024-02-14T10:21:05;101513.47;;;11.25;98.93
78383;BME280;67668;52.294;4.692;2024-02-14T10:23:30;101513.34;;;11.27;99.08
78383;BME280;67668;52.294;4.692;2024-02-14T10:25:57;101523.81;;;11.28;98.71
78383;BME280;67668;52.294;4.692;2024-02-14T10:28:23;101523.56;;;11.31;99.61
78383;BME280;67668;52.294;4.692;2024-02-14T10:30:49;101523.56;;;11.31;99.25
78383;BME280;67668;52.294;4.692;2024-02-14T10:33:17;101525.38;;;11.31;98.96
78383;BME280;67668;52.294;4.692;2024-02-14T10:35:44;101518.25;;;11.31;98.80
78383;BME280;67668;52.294;4.692;2024-02-14T10:38:11;101520.78;;;11.33;99.31
78383;BME280;67668;52.294;4.692;2024-02-14T10:40:37;101521.50;;;11.35;99.42
78383;BME280;67668;52.294;4.692;2024-02-14T10:43:08;101532.09;;;11.35;99.09
78383;BME280;67668;52.294;4.692;2024-02-14T10:45:36;101535.44;;;11.37;98.71
78383;BME280;67668;52.294;4.692;2024-02-14T10:48:04;101534.75;;;11.35;99.24
78383;BME280;67668;52.294;4.692;2024-02-14T10:50:33;101532.66;;;11.38;99.72
78383;BME280;67668;52.294;4.692;2024-02-14T10:53:04;101527.25;;;11.40;99.42
78383;BME280;67668;52.294;4.692;2024-02-14T10:55:30;101535.91;;;11.42;99.70
78383;BME280;67668;52.294;4.692;2024-02-14T10:57:57;101535.06;;;11.41;99.16
78383;BME280;67668;52.294;4.692;2024-02-14T11:00:22;101535.91;;;11.42;98.83
78383;BME280;67668;52.294;4.692;2024-02-14T11:02:48;101530.34;;;11.45;99.87
78383;BME280;67668;52.294;4.692;2024-02-14T11:05:14;101539.13;;;11.46;99.07
78383;BME280;67668;52.294;4.692;2024-02-14T11:07:46;101530.34;;;11.45;98.96
78383;BME280;67668;52.294;4.692;2024-02-14T11:10:16;101533.69;;;11.47;98.90
78383;BME280;67668;52.294;4.692;2024-02-14T11:12:42;101521.44;;;11.46;98.61
78383;BME280;67668;52.294;4.692;2024-02-14T11:15:11;101518.38;;;11.51;99.33
78383;BME280;67668;52.294;4.692;2024-02-14T11:17:39;101519.78;;;11.55;100.00
78383;BME280;67668;52.294;4.692;2024-02-14T11:20:17;101516.19;;;11.56;100.00
78383;BME280;67668;52.294;4.692;2024-02-14T11:23:05;101514.81;;;11.61;100.00
78383;BME280;67668;52.294;4.692;2024-02-14T11:25:34;101509.50;;;11.61;100.00
78383;BME280;67668;52.294;4.692;2024-02-14T11:28:00;101523.47;;;11.63;100.00
78383;BME280;67668;52.294;4.692;2024-02-14T11:30:36;101521.53;;;11.65;100.00
78383;BME280;67668;52.294;4.692;2024-02-14T11:33:28;101516.06;;;11.67;100.00
78383;BME280;67668;52.294;4.692;2024-02-14T11:35:54;101515.13;;;11.68;100.00
78383;BME280;67668;52.294;4.692;2024-02-14T11:38:21;101517.66;;;11.69;100.00
78383;BME280;67668;52.294;4.692;2024-02-14T11:40:47;101513.19;;;11.70;100.00
78383;BME280;67668;52.294;4.692;2024-02-14T11:43:14;101515.72;;;11.71;100.00
78383;BME280;67668;52.294;4.692;2024-02-14T11:45:43;101505.13;;;11.71;100.00
78383;BME280;67668;52.294;4.692;2024-02-14T11:48:14;101505.97;;;11.72;100.00
78383;BME280;67668;52.294;4.692;2024-02-14T11:50:44;101502.19;;;11.74;100.00
78383;BME280;67668;52.294;4.692;2024-02-14T11:53:11;101508.34;;;11.75;100.00
78383;BME280;67668;52.294;4.692;2024-02-14T11:55:37;101506.25;;;11.78;100.00
78383;BME280;67668;52.294;4.692;2024-02-14T11:58:14;101494.69;;;11.79;100.00
78383;BME280;67668;52.294;4.692;2024-02-14T12:00:42;101490.09;;;11.81;100.00
78383;BME280;67668;52.294;4.692;2024-02-14T12:03:13;101486.47;;;11.82;100.00
78383;BME280;67668;52.294;4.692;2024-02-14T12:05:38;101490.50;;;11.86;100.00
78383;BME280;67668;52.294;4.692;2024-02-14T12:08:06;101495.81;;;11.86;100.00
78383;BME280;67668;52.294;4.692;2024-02-14T12:10:32;101496.53;;;11.88;100.00
78383;BME280;67668;52.294;4.692;2024-02-14T12:12:58;101506.19;;;11.89;100.00
78383;BME280;67668;52.294;4.692;2024-02-14T12:15:26;101506.88;;;11.91;100.00
78383;BME280;67668;52.294;4.692;2024-02-14T12:17:51;101505.06;;;11.92;100.00
78383;BME280;67668;52.294;4.692;2024-02-14T12:20:21;101497.22;;;11.90;100.00
78383;BME280;67668;52.294;4.692;2024-02-14T12:22:50;101502.81;;;11.87;100.00
78383;BME280;67668;52.294;4.692;2024-02-14T12:25:15;101489.69;;;11.86;100.00
78383;BME280;67668;52.294;4.692;2024-02-14T12:27:41;101501.00;;;11.88;99.86
78383;BME280;67668;52.294;4.692;2024-02-14T12:30:07;101505.47;;;11.87;98.92
78383;BME280;67668;52.294;4.692;2024-02-14T12:32:32;101508.25;;;11.86;98.60
78383;BME280;67668;52.294;4.692;2024-02-14T12:34:59;101499.47;;;11.85;98.47
78383;BME280;67668;52.294;4.692;2024-02-14T12:37:24;101498.47;;;11.86;98.06
78383;BME280;67668;52.294;4.692;2024-02-14T12:39:50;101495.81;;;11.86;98.02
78383;BME280;67668;52.294;4.692;2024-02-14T12:42:15;101495.81;;;11.86;98.11
78383;BME280;67668;52.294;4.692;2024-02-14T12:44:43;101503.78;;;11.86;97.81